Time;durP1;ratioP1;P1;durP2;ratioP2;P2;SDS_P1;SDS_P2;PMS_P1;PMS_P2;Temp;Humidity;BMP_temperature;BMP_pressure;BME280_temperature;BME280_humidity;BME280_pressure;Samples;Min_cycle;Max_cycle;Signal;HPM_P1;HPM_P2
2021/08/28 00:00:05;;;;;;;;;3.00;3.00;;;;;16.73;65.99;101788.19;5041923;28;45354;-69
2021/08/28 00:02:30;;;;;;;;;5.00;3.25;;;;;16.71;65.48;101793.50;5041488;28;45305;-69
2021/08/28 00:04:55;;;;;;;;;3.25;2.00;;;;;16.68;65.96;101793.63;5041569;28;45304;-67
2021/08/28 00:07:21;;;;;;;;;3.75;1.25;;;;;16.63;67.88;101792.91;5042054;28;45371;-67
2021/08/28 00:09:46;;;;;;;;;1.00;1.00;;;;;16.62;66.54;101785.94;5041634;28;45345;-67
2021/08/28 00:12:12;;;;;;;;;1.50;1.50;;;;;16.59;67.98;101795.66;5041102;28;46831;-67
2021/08/28 00:14:37;;;;;;;;;3.75;3.25;;;;;16.53;67.06;101793.25;5041403;28;45402;-67
2021/08/28 00:17:03;;;;;;;;;2.00;2.00;;;;;16.49;68.95;101787.28;5041542;28;45281;-67
2021/08/28 00:19:28;;;;;;;;;2.25;2.25;;;;;16.42;68.37;101783.16;5041240;28;45593;-67
2021/08/28 00:21:53;;;;;;;;;2.25;1.50;;;;;16.40;67.99;101779.69;5041560;28;45150;-68
2021/08/28 00:24:19;;;;;;;;;2.50;1.00;;;;;16.35;69.80;101776.41;5041498;28;45278;-68
2021/08/28 00:26:45;;;;;;;;;5.25;2.00;;;;;16.32;68.81;101768.63;5041678;28;45228;-67
2021/08/28 00:29:10;;;;;;;;;4.25;3.00;;;;;16.28;68.63;101769.66;5041312;28;45496;-67
2021/08/28 00:31:35;;;;;;;;;2.00;2.00;;;;;16.27;68.46;101767.94;5041179;28;45209;-68
2021/08/28 00:34:01;;;;;;;;;5.25;3.75;;;;;16.23;71.07;101766.34;5039114;28;45403;-68
2021/08/28 00:36:26;;;;;;;;;4.00;2.25;;;;;16.22;71.17;101767.22;5040421;28;45478;-68
2021/08/28 00:38:52;;;;;;;;;3.50;3.50;;;;;16.19;71.20;101772.59;5041280;28;45142;-68
2021/08/28 00:41:17;;;;;;;;;4.00;2.25;;;;;16.15;70.74;101774.47;5041140;28;45264;-68
2021/08/28 00:43:43;;;;;;;;;3.00;3.00;;;;;16.10;71.17;101782.50;5050740;28;45288;-66
2021/08/28 00:46:09;;;;;;;;;1.75;1.00;;;;;16.08;73.03;101778.22;5041242;28;45571;-66
2021/08/28 00:48:34;;;;;;;;;7.25;5.25;;;;;16.06;71.71;101773.03;5043515;28;45339;-67
2021/08/28 00:51:00;;;;;;;;;4.75;2.75;;;;;16.01;74.26;101776.69;5047290;28;45410;-66
2021/08/28 00:53:25;;;;;;;;;4.75;4.50;;;;;15.94;72.85;101767.31;5040939;28;46330;-66
2021/08/28 00:55:52;;;;;;;;;2.00;2.00;;;;;15.90;75.44;101779.69;5038284;28;45419;-66
2021/08/28 00:58:19;;;;;;;;;3.75;3.25;;;;;15.87;73.87;101769.28;5039230;28;45510;-66
2021/08/28 01:00:47;;;;;;;;;4.00;4.00;;;;;15.82;75.87;101772.06;5040795;28;45348;-66
2021/08/28 01:03:17;;;;;;;;;1.25;1.25;;;;;15.80;73.36;101763.38;5040519;28;45672;-65
2021/08/28 01:06:02;;;;;;;;;6.00;3.00;;;;;15.80;73.71;101765.13;5040995;28;45334;-65
2021/08/28 01:08:44;;;;;;;;;3.50;2.00;;;;;15.82;74.70;101763.34;5045153;28;45462;-68
2021/08/28 01:11:19;;;;;;;;;6.50;4.00;;;;;15.80;74.69;101762.53;5042845;28;46262;-69
2021/08/28 01:13:49;;;;;;;;;3.00;2.75;;;;;15.80;75.50;101765.13;5040879;28;45333;-69
2021/08/28 01:16:19;;;;;;;;;2.00;2.00;;;;;15.78;73.96;101778.28;5040580;28;45280;-69
2021/08/28 01:18:45;;;;;;;;;2.00;0.50;;;;;15.78;75.47;101775.69;5040600;28;45529;-68
2021/08/28 01:21:20;;;;;;;;;4.00;4.00;;;;;15.77;75.87;101780.97;5040612;28;46485;-69
2021/08/28 01:23:48;;;;;;;;;3.25;3.25;;;;;15.77;74.44;101773.09;5040653;28;45300;-68
2021/08/28 01:26:19;;;;;;;;;6.50;2.50;;;;;15.71;75.31;101763.69;5044785;28;45260;-68
2021/08/28 01:28:49;;;;;;;;;9.25;4.00;;;;;15.76;75.05;101777.50;5044580;28;45546;-69
2021/08/28 01:31:15;;;;;;;;;7.50;5.50;;;;;15.77;74.99;101775.72;5040097;28;45283;-69
2021/08/28 01:33:42;;;;;;;;;4.00;3.00;;;;;15.78;74.67;101774.81;5040547;28;45254;-69
2021/08/28 01:36:10;;;;;;;;;3.50;3.00;;;;;15.78;74.71;101778.28;5040249;28;45294;-69
2021/08/28 01:38:37;;;;;;;;;4.50;2.25;;;;;15.77;76.04;101771.34;5038007;28;45441;-69
2021/08/28 01:41:04;;;;;;;;;3.25;3.25;;;;;15.77;77.36;101770.50;5017616;28;47548;-69
2021/08/28 01:43:30;;;;;;;;;4.00;3.25;;;;;15.73;76.91;101767.13;5039884;28;45260;-68
2021/08/28 01:45:55;;;;;;;;;4.75;4.00;;;;;15.73;75.92;101764.50;5040317;28;45330;-69
2021/08/28 01:48:21;;;;;;;;;5.00;4.00;;;;;15.70;75.67;101751.50;5040277;28;45511;-68
2021/08/28 01:50:47;;;;;;;;;3.75;2.00;;;;;15.74;76.68;101762.72;5039849;28;45325;-69
2021/08/28 01:53:14;;;;;;;;;5.75;1.75;;;;;15.73;75.36;101766.25;5040197;28;45249;-69
2021/08/28 01:55:41;;;;;;;;;4.00;4.00;;;;;15.70;75.55;101755.88;5040165;28;45297;-69
2021/08/28 01:58:07;;;;;;;;;5.25;5.25;;;;;15.72;75.73;101765.41;5039800;28;45367;-69
2021/08/28 02:00:32;;;;;;;;;5.00;2.50;;;;;15.75;75.01;101775.78;5039784;28;47014;-69
2021/08/28 02:02:57;;;;;;;;;4.00;4.00;;;;;15.75;75.99;101769.69;5039588;28;47903;-68
2021/08/28 02:05:23;;;;;;;;;8.00;4.00;;;;;15.75;76.59;101772.31;5039796;28;45341;-69
2021/08/28 02:08:06;;;;;;;;;5.50;4.25;;;;;15.76;75.88;101776.63;5040051;28;45211;-69
2021/08/28 02:10:41;;;;;;;;;5.50;4.50;;;;;15.75;75.98;101775.78;5031685;28;46238;-69
2021/08/28 02:13:14;;;;;;;;;3.00;1.25;;;;;15.74;76.65;101774.06;5043596;28;45355;-69
2021/08/28 02:15:48;;;;;;;;;0.00;0.00;;;;;15.74;75.98;101775.84;5040088;28;45281;-69
2021/08/28 02:18:22;;;;;;;;;4.25;3.25;;;;;15.70;76.58;101779.47;5039645;28;45397;-69
2021/08/28 02:20:53;;;;;;;;;4.50;3.25;;;;;15.70;77.76;101779.47;5039465;28;46433;-66
2021/08/28 02:23:47;;;;;;;;;5.00;4.00;;;;;15.67;76.86;101769.94;5039642;28;45225;-66
2021/08/28 02:26:23;;;;;;;;;4.00;3.25;;;;;15.68;76.96;101776.03;5032032;28;45269;-67
2021/08/28 02:28:56;;;;;;;;;4.00;4.00;;;;;15.68;76.82;101779.53;5039781;28;45353;-68
2021/08/28 02:31:28;;;;;;;;;6.00;3.00;;;;;15.67;76.68;101775.19;5039258;28;46625;-67
2021/08/28 02:33:56;;;;;;;;;5.75;3.00;;;;;15.65;76.75;101779.63;5039547;28;45786;-67
2021/08/28 02:36:21;;;;;;;;;8.25;4.00;;;;;15.62;77.28;101781.47;5032030;28;45348;-67
2021/08/28 02:38:49;;;;;;;;;3.75;3.00;;;;;15.65;77.58;101778.75;5039538;28;45269;-67
2021/08/28 02:41:15;;;;;;;;;5.25;4.75;;;;;15.66;77.45;101781.34;5039499;28;46076;-67
2021/08/28 02:43:42;;;;;;;;;4.00;4.00;;;;;15.66;77.56;101781.34;5039117;28;45277;-66
2021/08/28 02:46:10;;;;;;;;;4.00;3.00;;;;;15.66;77.39;101780.47;5039586;28;45380;-67
2021/08/28 02:48:37;;;;;;;;;4.50;2.75;;;;;15.67;77.12;101784.81;5040508;28;45629;-67
2021/08/28 02:51:06;;;;;;;;;3.75;2.75;;;;;15.64;77.21;101783.16;5039908;28;46351;-66
2021/08/28 02:53:32;;;;;;;;;3.25;3.00;;;;;15.63;77.68;101780.56;5039170;28;45261;-67
2021/08/28 02:55:59;;;;;;;;;5.75;4.00;;;;;15.65;77.30;101773.53;5039544;28;45472;-67
2021/08/28 02:58:25;;;;;;;;;7.75;3.50;;;;;15.63;77.24;101777.97;5038912;28;45457;-69
2021/08/28 03:00:51;;;;;;;;;6.00;3.50;;;;;15.63;77.08;101768.34;5041102;28;45316;-70
2021/08/28 03:03:18;;;;;;;;;4.50;4.00;;;;;15.60;77.63;101776.25;5042680;28;45384;-69
2021/08/28 03:05:47;;;;;;;;;4.00;2.25;;;;;15.60;77.68;101772.78;5042779;28;45234;-69
2021/08/28 03:08:15;;;;;;;;;5.25;4.00;;;;;15.60;76.94;101772.78;5042761;28;45234;-69
2021/08/28 03:10:44;;;;;;;;;7.00;2.75;;;;;15.56;77.50;101764.13;5042453;28;45467;-69
2021/08/28 03:13:09;;;;;;;;;6.50;3.25;;;;;15.53;78.17;101753.75;5042537;28;45233;-70
2021/08/28 03:15:36;;;;;;;;;5.50;5.00;;;;;15.58;77.83;101771.94;5042785;28;45254;-70
2021/08/28 03:18:01;;;;;;;;;6.00;5.00;;;;;15.60;77.77;101764.94;5042416;28;45225;-67
2021/08/28 03:20:27;;;;;;;;;5.00;2.50;;;;;15.61;77.85;101762.25;5029269;28;46142;-69
2021/08/28 03:22:53;;;;;;;;;4.00;2.00;;;;;15.61;77.54;101770.13;5042504;28;45246;-69
2021/08/28 03:25:19;;;;;;;;;6.00;5.00;;;;;15.61;77.71;101777.13;5042774;28;45207;-69
2021/08/28 03:27:46;;;;;;;;;8.75;4.00;;;;;15.60;77.34;101768.41;5020568;28;45265;-69
2021/08/28 03:30:14;;;;;;;;;7.25;4.50;;;;;15.61;77.74;101775.34;5036813;28;46247;-69
2021/08/28 03:32:43;;;;;;;;;7.00;3.00;;;;;15.60;77.77;101775.41;5042127;28;45653;-69
2021/08/28 03:35:10;;;;;;;;;5.75;5.50;;;;;15.56;77.74;101764.13;5042209;28;45528;-69
2021/08/28 03:37:39;;;;;;;;;6.25;4.25;;;;;15.54;78.62;101765.97;5042286;28;45350;-69
2021/08/28 03:40:07;;;;;;;;;4.75;4.00;;;;;15.54;78.36;101776.44;5041997;28;46239;-69
2021/08/28 03:42:32;;;;;;;;;7.00;5.00;;;;;15.52;78.21;101768.63;5042001;28;45335;-69
2021/08/28 03:44:58;;;;;;;;;4.75;4.50;;;;;15.50;78.05;101770.44;5042427;28;45217;-69
2021/08/28 03:47:24;;;;;;;;;6.75;4.00;;;;;15.50;78.71;101770.44;5041725;28;45364;-69
2021/08/28 03:49:49;;;;;;;;;4.50;4.00;;;;;15.50;78.20;101769.59;5041710;28;46173;-69
2021/08/28 03:52:14;;;;;;;;;4.75;4.00;;;;;15.46;78.44;101760.13;5042970;28;45337;-69
2021/08/28 03:54:40;;;;;;;;;7.00;5.00;;;;;15.44;78.87;101764.53;5042259;28;45361;-69
2021/08/28 03:57:05;;;;;;;;;4.00;4.00;;;;;15.44;78.85;101760.16;5041764;28;45457;-68
2021/08/28 03:59:30;;;;;;;;;5.25;5.25;;;;;15.43;79.12;101761.06;5042024;28;45547;-69
2021/08/28 04:01:56;;;;;;;;;6.50;4.50;;;;;15.44;78.91;101765.41;5041498;28;45364;-68
2021/08/28 04:04:21;;;;;;;;;5.25;2.00;;;;;15.44;79.48;101754.06;5037704;28;45393;-68
2021/08/28 04:06:46;;;;;;;;;5.50;3.50;;;;;15.44;79.33;101759.31;5041819;28;45488;-68
2021/08/28 04:09:12;;;;;;;;;3.25;3.25;;;;;15.41;79.17;101759.38;5041564;28;46129;-69
2021/08/28 04:11:37;;;;;;;;;4.00;4.00;;;;;15.41;79.04;101755.00;5022015;28;45356;-68
2021/08/28 04:14:02;;;;;;;;;7.25;4.50;;;;;15.43;79.36;101758.44;5041622;28;45945;-67
2021/08/28 04:16:28;;;;;;;;;4.25;4.00;;;;;15.38;79.94;101755.09;5041498;28;45451;-67
2021/08/28 04:18:53;;;;;;;;;5.00;4.00;;;;;15.39;79.09;101763.81;5041553;28;45548;-67
2021/08/28 04:21:19;;;;;;;;;5.00;4.00;;;;;15.37;79.51;101752.53;5044926;28;45261;-67
2021/08/28 04:23:44;;;;;;;;;3.75;3.00;;;;;15.37;79.53;101763.84;5047313;28;45511;-67
2021/08/28 04:26:09;;;;;;;;;4.75;4.00;;;;;15.37;79.71;101768.25;5041592;28;45261;-67
2021/08/28 04:28:35;;;;;;;;;5.00;4.00;;;;;15.35;80.38;101765.66;5041263;28;46322;-67
2021/08/28 04:31:00;;;;;;;;;6.25;4.75;;;;;15.31;80.25;101764.06;5041154;28;45253;-67
2021/08/28 04:33:26;;;;;;;;;4.50;3.75;;;;;15.32;80.21;101765.78;5041482;28;45262;-67
2021/08/28 04:35:51;;;;;;;;;5.50;3.25;;;;;15.31;81.68;101778.91;5041103;28;45229;-68
2021/08/28 04:38:16;;;;;;;;;7.75;4.75;;;;;15.29;80.18;101768.50;5050473;28;46021;-68
2021/08/28 04:40:42;;;;;;;;;4.25;4.25;;;;;15.30;80.94;101775.44;5041317;28;45205;-67
2021/08/28 04:43:07;;;;;;;;;4.50;2.75;;;;;15.28;81.95;101769.41;5041208;28;45532;-66
2021/08/28 04:45:32;;;;;;;;;5.00;5.00;;;;;15.28;81.70;101779.00;5041119;28;45332;-67
2021/08/28 04:47:58;;;;;;;;;5.75;5.00;;;;;15.26;81.68;101775.59;5040784;28;46102;-67
2021/08/28 04:50:23;;;;;;;;;9.00;3.75;;;;;15.24;81.46;101767.78;5042645;28;45495;-67
2021/08/28 04:52:49;;;;;;;;;4.25;3.00;;;;;15.29;81.34;101772.88;5041328;28;45386;-67
2021/08/28 04:55:14;;;;;;;;;2.50;2.00;;;;;15.31;80.93;101771.91;5041028;28;45312;-68
2021/08/28 04:57:39;;;;;;;;;4.00;4.00;;;;;15.40;81.66;101776.00;5040785;28;45456;-68
2021/08/28 05:00:05;;;;;;;;;6.00;5.00;;;;;15.45;81.86;101781.97;5040902;28;45344;-68
2021/08/28 05:02:31;;;;;;;;;6.00;5.50;;;;;15.50;81.80;101787.94;5040811;28;45513;-68
2021/08/28 05:04:56;;;;;;;;;4.25;4.25;;;;;15.46;81.32;101779.31;5040654;28;45310;-68
2021/08/28 05:07:22;;;;;;;;;5.00;3.50;;;;;15.44;81.91;101777.66;5040841;28;46380;-68
2021/08/28 05:09:47;;;;;;;;;6.00;4.00;;;;;15.43;81.34;101782.03;5040793;28;45349;-66
2021/08/28 05:12:12;;;;;;;;;5.00;5.00;;;;;15.47;81.06;101783.63;5040626;28;45252;-67
2021/08/28 05:14:39;;;;;;;;;8.75;6.00;;;;;15.50;80.87;101786.16;5040628;28;45526;-67
2021/08/28 05:17:05;;;;;;;;;4.00;4.00;;;;;15.52;80.88;101786.97;5040383;28;46238;-67
2021/08/28 05:19:30;;;;;;;;;5.25;5.00;;;;;15.56;80.84;101785.09;5040237;28;45245;-66
2021/08/28 05:21:56;;;;;;;;;5.75;4.75;;;;;15.62;80.57;101784.97;5040764;28;45234;-67
2021/08/28 05:24:21;;;;;;;;;8.50;6.00;;;;;15.66;80.73;101785.72;5032922;28;45278;-64
2021/08/28 05:26:47;;;;;;;;;6.25;4.75;;;;;15.69;80.14;101780.38;5040409;28;45232;-65
2021/08/28 05:29:12;;;;;;;;;6.00;4.75;;;;;15.70;81.16;101782.94;5033509;28;45228;-66
2021/08/28 05:31:37;;;;;;;;;5.25;5.00;;;;;15.69;81.53;101781.22;5025334;28;45236;-66
2021/08/28 05:34:03;;;;;;;;;8.00;6.00;;;;;15.70;80.64;101780.31;5036437;28;45210;-66
2021/08/28 05:36:28;;;;;;;;;5.25;3.75;;;;;15.78;80.21;101782.69;5040375;28;46175;-65
2021/08/28 05:38:54;;;;;;;;;6.50;4.00;;;;;15.81;81.50;101780.81;5040366;28;45396;-63
2021/08/28 05:41:20;;;;;;;;;5.75;4.00;;;;;15.83;81.25;101783.41;5040464;28;45353;-63
2021/08/28 05:43:45;;;;;;;;;3.75;3.75;;;;;15.90;80.66;101784.06;5040142;28;45317;-62
2021/08/28 05:46:10;;;;;;;;;5.00;4.00;;;;;15.97;80.67;101786.41;5040158;28;45388;-64
2021/08/28 05:48:36;;;;;;;;;6.00;4.50;;;;;16.01;80.24;101779.31;5036923;28;45418;-61
2021/08/28 05:51:01;;;;;;;;;7.50;7.00;;;;;16.04;80.35;101776.59;5040866;28;45375;-62
2021/08/28 05:53:26;;;;;;;;;6.25;3.50;;;;;16.10;79.84;101784.25;5040155;28;45333;-62
2021/08/28 05:55:52;;;;;;;;;8.25;5.50;;;;;16.15;80.04;101787.56;5040201;28;46032;-64
2021/08/28 05:58:17;;;;;;;;;6.00;5.50;;;;;16.18;79.78;101789.22;5039303;28;45476;-64
2021/08/28 06:00:42;;;;;;;;;5.00;5.00;;;;;16.21;79.99;101783.88;5040080;28;45363;-64
2021/08/28 06:03:09;;;;;;;;;7.75;5.75;;;;;16.26;79.53;101788.06;5039928;28;45460;-64
2021/08/28 06:05:34;;;;;;;;;4.25;4.25;;;;;16.28;79.59;101790.66;5039793;28;46259;-65
2021/08/28 06:07:59;;;;;;;;;5.00;3.75;;;;;16.32;79.42;101782.59;5040024;28;45246;-65
2021/08/28 06:10:25;;;;;;;;;9.75;5.25;;;;;16.39;79.12;101789.34;5040177;28;45320;-66
2021/08/28 06:12:50;;;;;;;;;7.00;5.25;;;;;16.42;79.54;101796.28;5039521;28;45190;-65
2021/08/28 06:15:16;;;;;;;;;8.75;5.00;;;;;16.46;79.62;101800.50;5029556;28;46048;-66
2021/08/28 06:17:41;;;;;;;;;6.25;5.00;;;;;16.46;79.76;101795.25;5038134;28;45334;-66
2021/08/28 06:20:07;;;;;;;;;8.75;4.00;;;;;16.49;79.46;101800.38;5044783;28;45725;-65
2021/08/28 06:22:32;;;;;;;;;4.75;4.00;;;;;16.50;79.27;101796.84;5040661;28;45347;-65
2021/08/28 06:24:58;;;;;;;;;5.75;3.50;;;;;16.52;79.29;101799.41;5038188;28;46930;-65
2021/08/28 06:27:23;;;;;;;;;5.25;5.25;;;;;16.52;79.29;101795.03;5038151;28;45622;-65
2021/08/28 06:29:48;;;;;;;;;5.25;5.00;;;;;16.54;79.54;101797.59;5039135;28;45443;-66
2021/08/28 06:32:14;;;;;;;;;5.75;4.25;;;;;16.57;79.58;101797.47;5039495;28;45411;-65
2021/08/28 06:34:39;;;;;;;;;5.00;3.00;;;;;16.58;79.73;101802.69;5038335;28;45969;-66
2021/08/28 06:37:04;;;;;;;;;1.50;1.50;;;;;16.63;79.44;101802.53;5048966;28;45315;-63
2021/08/28 06:39:30;;;;;;;;;1.75;1.00;;;;;16.65;79.50;101801.56;5039704;28;45451;-65
2021/08/28 06:41:55;;;;;;;;;3.75;3.75;;;;;16.68;79.61;101798.00;5039401;28;45316;-65
2021/08/28 06:44:21;;;;;;;;;4.00;4.00;;;;;16.74;79.08;101795.16;5039363;28;46934;-65
2021/08/28 06:46:46;;;;;;;;;6.00;4.00;;;;;16.82;78.74;101810.59;5039273;28;45353;-65
2021/08/28 06:49:11;;;;;;;;;5.00;4.75;;;;;16.86;78.58;101806.97;5030677;28;45399;-65
2021/08/28 06:51:37;;;;;;;;;5.00;4.00;;;;;16.86;79.09;101804.34;5041159;28;45337;-65
2021/08/28 06:54:02;;;;;;;;;7.75;4.25;;;;;16.83;78.82;101813.22;5039193;28;46436;-64
2021/08/28 06:56:28;;;;;;;;;6.00;4.00;;;;;16.87;78.96;101811.31;5039230;28;45322;-63
2021/08/28 06:58:53;;;;;;;;;6.75;5.00;;;;;16.97;78.81;101810.06;5039197;28;45553;-64
2021/08/28 07:01:18;;;;;;;;;8.25;5.25;;;;;17.10;78.29;101808.69;5039035;28;45293;-64
2021/08/28 07:03:44;;;;;;;;;7.00;6.00;;;;;17.20;78.00;101811.81;5038818;28;45322;-64
2021/08/28 07:06:09;;;;;;;;;7.00;5.00;;;;;17.29;77.97;101814.13;5039203;28;45356;-65
2021/08/28 07:08:34;;;;;;;;;6.00;4.75;;;;;17.39;77.66;101815.47;5039343;28;45595;-65
2021/08/28 07:11:00;;;;;;;;;6.25;6.00;;;;;17.48;77.63;101816.88;5037224;28;45612;-65
2021/08/28 07:13:26;;;;;;;;;7.50;4.75;;;;;17.57;77.16;101819.13;5032293;28;45305;-66
2021/08/28 07:15:52;;;;;;;;;5.50;4.00;;;;;17.66;77.17;101813.53;5036664;28;45256;-68
2021/08/28 07:18:17;;;;;;;;;9.25;4.75;;;;;17.74;76.99;101818.50;5039233;28;45437;-67
2021/08/28 07:20:42;;;;;;;;;6.25;6.25;;;;;17.85;76.50;101813.69;5038862;28;45443;-67
2021/08/28 07:23:08;;;;;;;;;10.25;7.75;;;;;18.00;76.58;101820.06;5017477;28;46295;-66
2021/08/28 07:25:37;;;;;;;;;8.00;3.50;;;;;18.08;75.92;101820.63;5025779;28;45459;-66
2021/08/28 07:28:06;;;;;;;;;7.25;6.25;;;;;18.13;75.97;101816.03;5035087;28;45502;-65
2021/08/28 07:30:32;;;;;;;;;11.00;9.00;;;;;18.22;75.96;101813.03;5038648;28;45574;-65
2021/08/28 07:32:57;;;;;;;;;8.50;6.75;;;;;18.38;75.94;101819.31;5038785;28;45549;-65
2021/08/28 07:35:23;;;;;;;;;11.75;6.50;;;;;18.48;74.87;101823.28;5038513;28;45384;-64
2021/08/28 07:37:48;;;;;;;;;8.00;6.25;;;;;18.49;74.56;101818.88;5017709;28;45759;-64
2021/08/28 07:40:14;;;;;;;;;10.25;7.00;;;;;18.51;74.93;101824.94;5029514;28;45709;-64
2021/08/28 07:42:39;;;;;;;;;13.00;9.25;;;;;18.51;74.92;101827.56;5038390;28;46411;-64
2021/08/28 07:45:06;;;;;;;;;8.75;7.25;;;;;18.55;74.81;101826.50;5020620;28;45266;-64
2021/08/28 07:47:31;;;;;;;;;10.00;7.75;;;;;18.49;74.30;101817.09;5041509;28;45309;-64
2021/08/28 07:49:57;;;;;;;;;10.75;7.25;;;;;18.47;74.04;101821.56;5043615;28;45324;-64
2021/08/28 07:52:22;;;;;;;;;6.50;6.00;;;;;18.44;75.03;101820.88;5041677;28;45999;-64
2021/08/28 07:54:47;;;;;;;;;9.00;7.00;;;;;18.45;74.97;101827.84;5041853;28;45237;-64
2021/08/28 07:57:13;;;;;;;;;12.25;8.00;;;;;18.40;74.79;101819.25;5041866;28;45308;-64
2021/08/28 07:59:38;;;;;;;;;11.25;8.25;;;;;18.45;74.45;101820.78;5041619;28;45426;-63
2021/08/28 08:02:04;;;;;;;;;11.75;7.00;;;;;18.45;74.36;101815.53;5041283;28;46124;-63
2021/08/28 08:04:29;;;;;;;;;10.75;7.00;;;;;18.51;74.35;101823.16;5041502;28;45254;-64
2021/08/28 08:06:54;;;;;;;;;9.00;7.75;;;;;18.54;74.61;101814.25;5041810;28;45174;-64
2021/08/28 08:09:20;;;;;;;;;9.50;7.25;;;;;18.59;74.91;101821.94;5041731;28;45478;-64
2021/08/28 08:11:45;;;;;;;;;8.00;7.75;;;;;18.62;74.19;101821.81;5041037;28;45945;-65
2021/08/28 08:14:11;;;;;;;;;4.25;2.00;;;;;18.54;73.65;101811.63;5041504;28;45282;-64
2021/08/28 08:16:36;;;;;;;;;9.25;6.50;;;;;18.47;74.59;101821.56;5046147;28;45241;-65
2021/08/28 08:19:02;;;;;;;;;12.00;6.50;;;;;18.45;75.54;101815.53;5045313;28;45422;-68
2021/08/28 08:21:27;;;;;;;;;8.00;5.75;;;;;18.48;74.88;101820.66;5019792;28;45381;-69
2021/08/28 08:23:53;;;;;;;;;10.00;7.00;;;;;18.51;74.92;101810.00;5037402;28;45236;-69
2021/08/28 08:26:18;;;;;;;;;6.50;6.00;;;;;18.60;74.76;101813.13;5040841;28;45237;-69
2021/08/28 08:28:43;;;;;;;;;8.50;7.25;;;;;18.73;75.12;101819.59;5040662;28;45623;-69
2021/08/28 08:31:09;;;;;;;;;5.75;3.00;;;;;18.87;74.68;101811.97;5040262;28;45900;-69
2021/08/28 08:33:34;;;;;;;;;7.50;7.00;;;;;19.06;74.64;101819.88;5040651;28;45449;-69
2021/08/28 08:35:59;;;;;;;;;12.25;7.00;;;;;19.18;74.10;101821.94;5040498;28;45496;-68
2021/08/28 08:38:25;;;;;;;;;11.25;5.25;;;;;19.33;74.10;101817.75;5040157;28;45759;-69
2021/08/28 08:40:50;;;;;;;;;6.50;4.50;;;;;19.48;72.91;101819.66;5040578;28;46330;-69
2021/08/28 08:43:15;;;;;;;;;5.75;5.75;;;;;19.65;72.10;101829.44;5040310;28;45420;-69
2021/08/28 08:45:42;;;;;;;;;8.50;6.50;;;;;19.77;72.80;101822.72;5041483;28;45434;-70
2021/08/28 08:48:08;;;;;;;;;7.75;7.75;;;;;19.89;71.69;101816.84;5040497;28;45361;-69
2021/08/28 08:50:34;;;;;;;;;6.75;5.00;;;;;19.91;70.23;101809.72;5039966;28;45364;-70
2021/08/28 08:53:03;;;;;;;;;10.50;7.00;;;;;19.95;69.08;101816.53;5040592;28;45422;-66
2021/08/28 08:55:29;;;;;;;;;6.00;6.00;;;;;20.01;69.89;101825.00;5038795;28;45563;-68
2021/08/28 08:57:55;;;;;;;;;8.75;7.00;;;;;20.14;70.09;101813.84;5037589;28;45796;-67
2021/08/28 09:00:20;;;;;;;;;7.00;5.75;;;;;20.28;69.32;101835.97;5038734;28;45376;-66
2021/08/28 09:02:46;;;;;;;;;7.50;5.50;;;;;20.18;67.68;101820.66;5039822;28;45345;-66
2021/08/28 09:05:11;;;;;;;;;7.00;4.50;;;;;20.14;67.71;101824.38;5040166;28;45629;-69
2021/08/28 09:07:37;;;;;;;;;8.50;5.00;;;;;20.22;67.27;101815.16;5040270;28;45598;-67
2021/08/28 09:10:03;;;;;;;;;4.00;4.00;;;;;20.34;67.55;101827.72;5040390;28;46056;-68
2021/08/28 09:12:41;;;;;;;;;7.00;4.50;;;;;20.32;66.95;101823.47;5040311;28;45262;-73
2021/08/28 09:15:11;;;;;;;;;2.25;1.25;;;;;20.29;67.32;101824.47;5040438;28;45436;-68
2021/08/28 09:17:37;;;;;;;;;6.00;3.50;;;;;20.30;66.08;101820.91;5040256;28;45250;-68
2021/08/28 09:20:20;;;;;;;;;8.00;6.00;;;;;20.37;66.60;101829.34;5039804;28;45339;-68
2021/08/28 09:22:46;;;;;;;;;8.75;6.75;;;;;20.43;66.98;101830.88;5039756;28;45780;-68
2021/08/28 09:25:13;;;;;;;;;7.25;5.75;;;;;20.49;66.39;101820.00;5040119;28;45459;-68
2021/08/28 09:27:43;;;;;;;;;5.00;5.00;;;;;20.50;66.23;101830.47;5036998;28;45694;-68
2021/08/28 09:30:32;;;;;;;;;6.00;4.50;;;;;20.44;66.31;101828.16;5042134;28;45246;-69
2021/08/28 09:33:00;;;;;;;;;5.50;5.00;;;;;20.48;66.41;101828.84;5039232;28;45357;-66
2021/08/28 09:35:29;;;;;;;;;5.00;3.25;;;;;20.60;65.52;101833.47;5039687;28;45317;-67
2021/08/28 09:38:06;;;;;;;;;5.00;3.50;;;;;20.73;65.59;101837.19;5040344;28;45526;-66
2021/08/28 09:40:36;;;;;;;;;5.25;4.00;;;;;20.79;64.85;101839.50;5038258;28;47216;-65
2021/08/28 09:43:08;;;;;;;;;5.50;4.00;;;;;20.79;64.66;101833.38;5036899;28;45410;-66
2021/08/28 09:45:35;;;;;;;;;4.50;4.25;;;;;20.78;64.56;101832.53;5039393;28;45488;-67
2021/08/28 09:48:02;;;;;;;;;3.75;3.00;;;;;20.86;62.97;101834.78;5035228;28;45451;-67
2021/08/28 09:50:30;;;;;;;;;5.50;5.00;;;;;20.87;63.58;101831.19;5043158;28;46186;-64
2021/08/28 09:52:59;;;;;;;;;8.25;5.50;;;;;20.94;63.94;101828.13;5039238;28;45251;-63
2021/08/28 09:55:28;;;;;;;;;3.00;1.75;;;;;21.00;62.44;101828.72;5039402;28;45265;-64
2021/08/28 09:57:53;;;;;;;;;4.00;4.00;;;;;21.11;63.31;101824.59;5039190;28;45214;-64
2021/08/28 10:00:19;;;;;;;;;1.50;1.50;;;;;21.22;63.44;101821.34;5039052;28;46105;-63
2021/08/28 10:02:59;;;;;;;;;5.25;4.00;;;;;21.30;62.39;101835.03;5038924;28;45515;-62
2021/08/28 10:05:26;;;;;;;;;5.50;4.25;;;;;21.25;61.53;101821.25;5038202;28;45463;-61
2021/08/28 10:07:56;;;;;;;;;3.00;3.00;;;;;21.06;60.57;101820.50;5039075;28;45401;-65
2021/08/28 10:10:22;;;;;;;;;6.00;5.00;;;;;20.87;61.54;101831.19;5038970;28;46350;-63
2021/08/28 10:12:47;;;;;;;;;7.25;4.75;;;;;20.93;62.52;101820.28;5038691;28;45574;-64
2021/08/28 10:15:14;;;;;;;;;4.25;3.25;;;;;20.96;61.68;101825.41;5038991;28;45495;-65
2021/08/28 10:17:41;;;;;;;;;7.00;4.75;;;;;21.10;62.34;101806.16;5040931;28;45360;-63
2021/08/28 10:20:07;;;;;;;;;6.00;4.00;;;;;21.20;60.83;101808.22;5038849;28;45482;-63
2021/08/28 10:22:37;;;;;;;;;3.75;3.50;;;;;21.21;61.34;101811.72;5038596;28;45495;-64
2021/08/28 10:25:07;;;;;;;;;6.00;4.00;;;;;21.30;61.91;101827.13;5040540;28;45258;-64
2021/08/28 10:27:33;;;;;;;;;5.00;3.25;;;;;21.38;61.45;101826.69;5037245;28;46266;-63
2021/08/28 10:29:58;;;;;;;;;5.50;4.00;;;;;21.47;60.89;101829.69;5038389;28;45484;-63
2021/08/28 10:32:24;;;;;;;;;5.00;4.75;;;;;21.53;60.14;101823.19;5037897;28;45482;-65
2021/08/28 10:34:50;;;;;;;;;5.25;4.50;;;;;21.63;60.34;101831.47;5039024;28;45449;-64
2021/08/28 10:37:16;;;;;;;;;7.25;4.50;;;;;21.70;59.83;101830.19;5038805;28;45387;-64
2021/08/28 10:39:43;;;;;;;;;4.25;3.00;;;;;21.80;60.61;101823.41;5038749;28;46155;-63
2021/08/28 10:42:11;;;;;;;;;3.00;3.00;;;;;21.97;59.25;101833.03;5038627;28;45315;-65
2021/08/28 10:44:38;;;;;;;;;5.75;4.25;;;;;21.95;58.66;101825.19;5039112;28;45453;-65
2021/08/28 10:47:05;;;;;;;;;2.50;2.50;;;;;21.98;58.68;101822.34;5037406;28;45448;-64
2021/08/28 10:49:31;;;;;;;;;4.50;4.00;;;;;22.04;58.62;101832.63;5038765;28;45374;-56
2021/08/28 10:51:57;;;;;;;;;8.00;5.00;;;;;22.09;58.32;101827.06;5038632;28;45399;-57
2021/08/28 10:54:29;;;;;;;;;7.25;5.00;;;;;22.09;59.25;101817.31;5038970;28;45737;-56
2021/08/28 10:56:57;;;;;;;;;6.00;4.00;;;;;22.06;59.00;101816.66;5038035;28;45376;-62
2021/08/28 10:59:32;;;;;;;;;5.25;4.25;;;;;22.07;57.08;101819.22;5038632;28;47294;-63
2021/08/28 11:02:09;;;;;;;;;6.50;4.00;;;;;22.15;57.81;101821.41;5036357;28;45723;-63
2021/08/28 11:04:44;;;;;;;;;5.00;3.25;;;;;22.32;57.90;101809.81;5036489;28;45365;-62
2021/08/28 11:07:26;;;;;;;;;5.00;4.00;;;;;22.46;58.40;101813.34;5038605;28;45392;-64
2021/08/28 11:10:20;;;;;;;;;4.75;3.00;;;;;22.78;57.31;101819.31;5035916;28;46377;-63
2021/08/28 11:12:45;;;;;;;;;5.00;5.00;;;;;23.05;57.50;101816.81;5037664;28;45656;-62
2021/08/28 11:15:33;;;;;;;;;6.00;6.00;;;;;23.22;57.85;101813.06;5038538;28;45447;-62
2021/08/28 11:18:02;;;;;;;;;6.25;4.25;;;;;23.29;55.15;101810.91;5023207;28;45275;-62
2021/08/28 11:20:40;;;;;;;;;5.00;4.00;;;;;23.34;55.80;101814.09;5036888;28;46321;-62
2021/08/28 11:23:11;;;;;;;;;6.25;6.25;;;;;23.39;55.82;101804.03;5038820;28;45713;-62